sensor_id;sensor_type;location;lat;lon;timestamp;P1;durP1;ratioP1;P2;durP2;ratioP2
55589;SDS011;41452;42.780;23.116;2023-05-07T00:01:46;12.75;;;4.78;;
55589;SDS011;41452;42.780;23.116;2023-05-07T00:04:12;5.78;;;3.60;;
55589;SDS011;41452;42.780;23.116;2023-05-07T00:06:38;5.95;;;4.18;;
55589;SDS011;41452;42.780;23.116;2023-05-07T00:09:03;8.25;;;4.47;;
55589;SDS011;41452;42.780;23.116;2023-05-07T00:11:29;6.30;;;3.90;;
55589;SDS011;41452;42.780;23.116;2023-05-07T00:13:55;6.97;;;4.07;;
55589;SDS011;41452;42.780;23.116;2023-05-07T00:16:20;13.35;;;4.53;;
55589;SDS011;41452;42.780;23.116;2023-05-07T00:18:46;8.38;;;4.35;;
55589;SDS011;41452;42.780;23.116;2023-05-07T00:21:11;6.18;;;4.13;;
55589;SDS011;41452;42.780;23.116;2023-05-07T00:23:37;7.40;;;4.00;;
55589;SDS011;41452;42.780;23.116;2023-05-07T00:26:03;7.72;;;4.35;;
55589;SDS011;41452;42.780;23.116;2023-05-07T00:28:28;6.30;;;4.15;;
55589;SDS011;41452;42.780;23.116;2023-05-07T00:30:54;7.05;;;4.00;;
55589;SDS011;41452;42.780;23.116;2023-05-07T00:33:19;7.50;;;3.63;;
55589;SDS011;41452;42.780;23.116;2023-05-07T00:35:45;7.85;;;4.07;;
55589;SDS011;41452;42.780;23.116;2023-05-07T00:38:11;5.00;;;3.33;;
55589;SDS011;41452;42.780;23.116;2023-05-07T00:40:36;8.38;;;4.00;;
55589;SDS011;41452;42.780;23.116;2023-05-07T00:43:02;8.93;;;3.90;;
55589;SDS011;41452;42.780;23.116;2023-05-07T00:45:28;6.43;;;4.00;;
55589;SDS011;41452;42.780;23.116;2023-05-07T00:47:57;5.90;;;4.05;;
55589;SDS011;41452;42.780;23.116;2023-05-07T00:50:23;5.97;;;3.50;;
55589;SDS011;41452;42.780;23.116;2023-05-07T00:52:49;8.20;;;4.35;;
55589;SDS011;41452;42.780;23.116;2023-05-07T00:55:14;7.47;;;4.20;;
55589;SDS011;41452;42.780;23.116;2023-05-07T00:57:40;5.93;;;3.42;;
55589;SDS011;41452;42.780;23.116;2023-05-07T01:00:07;8.13;;;4.00;;
55589;SDS011;41452;42.780;23.116;2023-05-07T01:02:34;7.95;;;4.05;;
55589;SDS011;41452;42.780;23.116;2023-05-07T01:05:01;5.68;;;3.42;;
55589;SDS011;41452;42.780;23.116;2023-05-07T01:07:28;5.93;;;4.03;;
55589;SDS011;41452;42.780;23.116;2023-05-07T01:09:55;6.60;;;3.90;;
55589;SDS011;41452;42.780;23.116;2023-05-07T01:12:21;9.65;;;4.15;;
55589;SDS011;41452;42.780;23.116;2023-05-07T01:14:47;6.18;;;3.85;;
55589;SDS011;41452;42.780;23.116;2023-05-07T01:17:14;6.85;;;3.75;;
55589;SDS011;41452;42.780;23.116;2023-05-07T01:19:40;7.38;;;3.72;;
55589;SDS011;41452;42.780;23.116;2023-05-07T01:22:09;6.13;;;3.92;;
55589;SDS011;41452;42.780;23.116;2023-05-07T01:24:40;7.30;;;3.50;;
55589;SDS011;41452;42.780;23.116;2023-05-07T01:27:06;5.28;;;3.35;;
55589;SDS011;41452;42.780;23.116;2023-05-07T01:29:32;7.72;;;3.50;;
55589;SDS011;41452;42.780;23.116;2023-05-07T01:31:58;7.75;;;3.40;;
55589;SDS011;41452;42.780;23.116;2023-05-07T01:34:25;6.07;;;3.70;;
55589;SDS011;41452;42.780;23.116;2023-05-07T01:36:53;5.47;;;3.45;;
55589;SDS011;41452;42.780;23.116;2023-05-07T01:39:21;6.70;;;4.25;;
55589;SDS011;41452;42.780;23.116;2023-05-07T01:41:49;5.78;;;3.35;;
55589;SDS011;41452;42.780;23.116;2023-05-07T01:44:15;7.47;;;4.20;;
55589;SDS011;41452;42.780;23.116;2023-05-07T01:46:41;8.73;;;4.40;;
55589;SDS011;41452;42.780;23.116;2023-05-07T01:49:07;5.45;;;3.40;;
55589;SDS011;41452;42.780;23.116;2023-05-07T01:51:32;4.97;;;3.65;;
55589;SDS011;41452;42.780;23.116;2023-05-07T01:53:58;7.38;;;3.72;;
55589;SDS011;41452;42.780;23.116;2023-05-07T01:56:25;6.00;;;3.83;;
55589;SDS011;41452;42.780;23.116;2023-05-07T01:58:50;6.10;;;3.60;;
55589;SDS011;41452;42.780;23.116;2023-05-07T02:01:16;7.20;;;4.15;;
55589;SDS011;41452;42.780;23.116;2023-05-07T02:03:42;7.15;;;3.58;;
55589;SDS011;41452;42.780;23.116;2023-05-07T02:06:08;6.93;;;3.75;;
55589;SDS011;41452;42.780;23.116;2023-05-07T02:08:33;5.72;;;3.75;;
55589;SDS011;41452;42.780;23.116;2023-05-07T02:10:59;5.75;;;3.67;;
55589;SDS011;41452;42.780;23.116;2023-05-07T02:13:26;7.25;;;3.92;;
55589;SDS011;41452;42.780;23.116;2023-05-07T02:15:53;6.75;;;4.25;;
55589;SDS011;41452;42.780;23.116;2023-05-07T02:18:19;5.72;;;4.15;;
55589;SDS011;41452;42.780;23.116;2023-05-07T02:20:44;6.38;;;4.00;;
55589;SDS011;41452;42.780;23.116;2023-05-07T02:23:10;5.82;;;3.65;;
55589;SDS011;41452;42.780;23.116;2023-05-07T02:25:35;5.90;;;3.97;;
55589;SDS011;41452;42.780;23.116;2023-05-07T02:28:00;9.35;;;4.38;;
55589;SDS011;41452;42.780;23.116;2023-05-07T02:30:26;7.85;;;4.50;;
55589;SDS011;41452;42.780;23.116;2023-05-07T02:32:51;9.82;;;4.28;;
55589;SDS011;41452;42.780;23.116;2023-05-07T02:35:16;9.88;;;4.68;;
55589;SDS011;41452;42.780;23.116;2023-05-07T02:37:42;8.65;;;4.65;;
55589;SDS011;41452;42.780;23.116;2023-05-07T02:40:07;7.55;;;4.45;;
55589;SDS011;41452;42.780;23.116;2023-05-07T02:42:33;9.52;;;4.43;;
55589;SDS011;41452;42.780;23.116;2023-05-07T02:45:00;6.38;;;3.90;;
55589;SDS011;41452;42.780;23.116;2023-05-07T02:47:25;7.30;;;4.88;;
55589;SDS011;41452;42.780;23.116;2023-05-07T02:49:53;6.38;;;4.72;;
55589;SDS011;41452;42.780;23.116;2023-05-07T02:52:18;9.07;;;4.90;;
55589;SDS011;41452;42.780;23.116;2023-05-07T02:54:44;8.20;;;5.10;;
55589;SDS011;41452;42.780;23.116;2023-05-07T02:57:09;9.23;;;5.03;;
55589;SDS011;41452;42.780;23.116;2023-05-07T02:59:35;8.68;;;5.00;;
55589;SDS011;41452;42.780;23.116;2023-05-07T03:02:00;7.45;;;4.40;;
55589;SDS011;41452;42.780;23.116;2023-05-07T03:04:25;6.95;;;4.30;;
55589;SDS011;41452;42.780;23.116;2023-05-07T03:06:51;6.32;;;4.10;;
55589;SDS011;41452;42.780;23.116;2023-05-07T03:09:16;8.38;;;4.72;;
55589;SDS011;41452;42.780;23.116;2023-05-07T03:11:42;9.13;;;4.30;;
55589;SDS011;41452;42.780;23.116;2023-05-07T03:14:07;8.90;;;4.65;;
55589;SDS011;41452;42.780;23.116;2023-05-07T03:16:32;10.57;;;4.32;;
55589;SDS011;41452;42.780;23.116;2023-05-07T03:18:58;7.90;;;4.57;;
55589;SDS011;41452;42.780;23.116;2023-05-07T03:21:23;6.90;;;4.53;;
55589;SDS011;41452;42.780;23.116;2023-05-07T03:23:49;8.48;;;4.43;;
55589;SDS011;41452;42.780;23.116;2023-05-07T03:26:14;12.05;;;4.97;;
55589;SDS011;41452;42.780;23.116;2023-05-07T03:28:40;9.25;;;5.00;;
55589;SDS011;41452;42.780;23.116;2023-05-07T03:31:05;7.05;;;4.00;;
55589;SDS011;41452;42.780;23.116;2023-05-07T03:33:32;8.70;;;4.68;;
55589;SDS011;41452;42.780;23.116;2023-05-07T03:35:58;9.77;;;5.07;;
55589;SDS011;41452;42.780;23.116;2023-05-07T03:38:23;6.10;;;4.03;;
55589;SDS011;41452;42.780;23.116;2023-05-07T03:40:49;8.15;;;5.05;;
55589;SDS011;41452;42.780;23.116;2023-05-07T03:43:14;10.60;;;4.78;;
55589;SDS011;41452;42.780;23.116;2023-05-07T03:45:40;10.98;;;5.05;;
55589;SDS011;41452;42.780;23.116;2023-05-07T03:48:05;7.53;;;5.20;;
55589;SDS011;41452;42.780;23.116;2023-05-07T03:50:30;7.32;;;4.97;;
55589;SDS011;41452;42.780;23.116;2023-05-07T03:52:56;6.88;;;4.45;;
55589;SDS011;41452;42.780;23.116;2023-05-07T03:55:21;8.07;;;5.50;;
55589;SDS011;41452;42.780;23.116;2023-05-07T03:57:47;7.38;;;4.55;;
55589;SDS011;41452;42.780;23.116;2023-05-07T04:00:12;8.77;;;5.13;;
55589;SDS011;41452;42.780;23.116;2023-05-07T04:02:38;11.02;;;5.25;;
55589;SDS011;41452;42.780;23.116;2023-05-07T04:05:03;7.13;;;4.68;;
55589;SDS011;41452;42.780;23.116;2023-05-07T04:07:29;7.18;;;5.15;;
55589;SDS011;41452;42.780;23.116;2023-05-07T04:09:54;8.20;;;5.20;;
55589;SDS011;41452;42.780;23.116;2023-05-07T04:12:20;8.75;;;5.80;;
55589;SDS011;41452;42.780;23.116;2023-05-07T04:14:45;8.68;;;5.38;;
55589;SDS011;41452;42.780;23.116;2023-05-07T04:17:10;9.00;;;5.32;;
55589;SDS011;41452;42.780;23.116;2023-05-07T04:19:36;8.95;;;5.60;;
55589;SDS011;41452;42.780;23.116;2023-05-07T04:22:01;11.80;;;5.57;;
55589;SDS011;41452;42.780;23.116;2023-05-07T04:24:27;9.20;;;5.40;;
55589;SDS011;41452;42.780;23.116;2023-05-07T04:26:52;10.68;;;6.13;;
55589;SDS011;41452;42.780;23.116;2023-05-07T04:29:18;9.38;;;5.63;;
55589;SDS011;41452;42.780;23.116;2023-05-07T04:31:43;10.07;;;5.57;;
55589;SDS011;41452;42.780;23.116;2023-05-07T04:34:09;13.48;;;7.05;;
55589;SDS011;41452;42.780;23.116;2023-05-07T04:36:36;10.52;;;6.60;;
55589;SDS011;41452;42.780;23.116;2023-05-07T04:39:03;11.27;;;7.07;;
55589;SDS011;41452;42.780;23.116;2023-05-07T04:41:28;10.55;;;6.82;;
55589;SDS011;41452;42.780;23.116;2023-05-07T04:43:54;13.13;;;7.20;;
55589;SDS011;41452;42.780;23.116;2023-05-07T04:46:19;12.77;;;7.10;;
55589;SDS011;41452;42.780;23.116;2023-05-07T04:48:45;12.77;;;8.00;;
55589;SDS011;41452;42.780;23.116;2023-05-07T04:51:10;14.70;;;7.40;;
55589;SDS011;41452;42.780;23.116;2023-05-07T04:53:36;16.35;;;8.75;;
55589;SDS011;41452;42.780;23.116;2023-05-07T04:56:02;15.52;;;8.75;;
55589;SDS011;41452;42.780;23.116;2023-05-07T04:58:28;15.93;;;8.73;;
55589;SDS011;41452;42.780;23.116;2023-05-07T05:00:56;15.02;;;10.20;;
55589;SDS011;41452;42.780;23.116;2023-05-07T05:03:22;19.08;;;10.25;;
55589;SDS011;41452;42.780;23.116;2023-05-07T05:05:49;19.63;;;10.98;;
55589;SDS011;41452;42.780;23.116;2023-05-07T05:08:14;18.45;;;11.27;;
55589;SDS011;41452;42.780;23.116;2023-05-07T05:10:40;22.50;;;11.85;;
55589;SDS011;41452;42.780;23.116;2023-05-07T05:13:06;22.40;;;12.32;;
55589;SDS011;41452;42.780;23.116;2023-05-07T05:15:33;17.25;;;11.30;;
55589;SDS011;41452;42.780;23.116;2023-05-07T05:17:58;19.77;;;11.30;;
55589;SDS011;41452;42.780;23.116;2023-05-07T05:20:23;19.20;;;10.65;;
55589;SDS011;41452;42.780;23.116;2023-05-07T05:22:49;17.23;;;11.18;;
55589;SDS011;41452;42.780;23.116;2023-05-07T05:25:14;17.35;;;11.02;;
55589;SDS011;41452;42.780;23.116;2023-05-07T05:27:40;16.27;;;11.05;;
55589;SDS011;41452;42.780;23.116;2023-05-07T05:30:05;18.55;;;11.32;;
55589;SDS011;41452;42.780;23.116;2023-05-07T05:32:31;16.98;;;11.07;;
55589;SDS011;41452;42.780;23.116;2023-05-07T05:34:56;19.80;;;12.10;;
55589;SDS011;41452;42.780;23.116;2023-05-07T05:37:22;15.48;;;11.15;;
55589;SDS011;41452;42.780;23.116;2023-05-07T05:39:47;20.13;;;11.02;;
55589;SDS011;41452;42.780;23.116;2023-05-07T05:42:13;18.35;;;10.82;;
55589;SDS011;41452;42.780;23.116;2023-05-07T05:44:38;16.13;;;10.35;;
55589;SDS011;41452;42.780;23.116;2023-05-07T05:47:03;22.73;;;11.00;;
55589;SDS011;41452;42.780;23.116;2023-05-07T05:49:29;16.20;;;10.48;;
55589;SDS011;41452;42.780;23.116;2023-05-07T05:51:54;19.40;;;10.35;;
55589;SDS011;41452;42.780;23.116;2023-05-07T05:54:20;17.95;;;10.10;;
55589;SDS011;41452;42.780;23.116;2023-05-07T05:56:46;15.00;;;9.32;;
55589;SDS011;41452;42.780;23.116;2023-05-07T05:59:11;19.30;;;10.80;;
55589;SDS011;41452;42.780;23.116;2023-05-07T06:01:37;18.92;;;11.35;;
55589;SDS011;41452;42.780;23.116;2023-05-07T06:04:03;19.15;;;11.27;;
55589;SDS011;41452;42.780;23.116;2023-05-07T06:06:29;16.65;;;10.55;;
55589;SDS011;41452;42.780;23.116;2023-05-07T06:08:54;17.27;;;10.93;;
55589;SDS011;41452;42.780;23.116;2023-05-07T06:11:19;16.75;;;10.60;;
55589;SDS011;41452;42.780;23.116;2023-05-07T06:13:45;15.50;;;10.85;;
55589;SDS011;41452;42.780;23.116;2023-05-07T06:16:10;15.35;;;9.88;;
55589;SDS011;41452;42.780;23.116;2023-05-07T06:18:35;16.20;;;10.52;;
55589;SDS011;41452;42.780;23.116;2023-05-07T06:21:01;18.73;;;11.25;;
55589;SDS011;41452;42.780;23.116;2023-05-07T06:23:27;18.60;;;10.35;;
55589;SDS011;41452;42.780;23.116;2023-05-07T06:25:52;19.80;;;10.52;;
55589;SDS011;41452;42.780;23.116;2023-05-07T06:28:17;15.82;;;10.40;;
55589;SDS011;41452;42.780;23.116;2023-05-07T06:30:43;15.15;;;9.65;;
55589;SDS011;41452;42.780;23.116;2023-05-07T06:33:08;17.17;;;9.95;;
55589;SDS011;41452;42.780;23.116;2023-05-07T06:35:34;18.00;;;10.55;;
55589;SDS011;41452;42.780;23.116;2023-05-07T06:37:59;18.80;;;10.60;;
55589;SDS011;41452;42.780;23.116;2023-05-07T06:40:25;14.50;;;9.32;;
55589;SDS011;41452;42.780;23.116;2023-05-07T06:42:50;14.85;;;9.48;;
55589;SDS011;41452;42.780;23.116;2023-05-07T06:45:16;19.42;;;9.98;;
55589;SDS011;41452;42.780;23.116;2023-05-07T06:47:41;23.23;;;9.68;;
55589;SDS011;41452;42.780;23.116;2023-05-07T06:50:07;13.65;;;8.63;;
55589;SDS011;41452;42.780;23.116;2023-05-07T06:52:32;18.02;;;9.95;;
55589;SDS011;41452;42.780;23.116;2023-05-07T06:54:59;16.63;;;9.48;;
55589;SDS011;41452;42.780;23.116;2023-05-07T06:57:24;13.88;;;9.25;;
55589;SDS011;41452;42.780;23.116;2023-05-07T06:59:50;17.73;;;9.40;;
55589;SDS011;41452;42.780;23.116;2023-05-07T07:02:15;16.00;;;9.27;;
55589;SDS011;41452;42.780;23.116;2023-05-07T07:04:41;14.82;;;8.63;;
55589;SDS011;41452;42.780;23.116;2023-05-07T07:07:06;13.73;;;9.35;;
55589;SDS011;41452;42.780;23.116;2023-05-07T07:09:32;15.20;;;8.48;;
55589;SDS011;41452;42.780;23.116;2023-05-07T07:11:57;13.13;;;8.45;;
55589;SDS011;41452;42.780;23.116;2023-05-07T07:14:23;15.85;;;7.78;;
55589;SDS011;41452;42.780;23.116;2023-05-07T07:16:48;11.57;;;8.23;;
55589;SDS011;41452;42.780;23.116;2023-05-07T07:19:13;16.27;;;8.52;;
55589;SDS011;41452;42.780;23.116;2023-05-07T07:21:40;14.48;;;8.75;;
55589;SDS011;41452;42.780;23.116;2023-05-07T07:24:06;13.02;;;8.60;;
55589;SDS011;41452;42.780;23.116;2023-05-07T07:26:31;16.48;;;8.88;;
55589;SDS011;41452;42.780;23.116;2023-05-07T07:28:57;11.40;;;7.43;;
55589;SDS011;41452;42.780;23.116;2023-05-07T07:31:22;17.52;;;8.80;;
55589;SDS011;41452;42.780;23.116;2023-05-07T07:33:47;11.18;;;8.43;;
55589;SDS011;41452;42.780;23.116;2023-05-07T07:36:15;15.05;;;8.48;;
55589;SDS011;41452;42.780;23.116;2023-05-07T07:38:40;15.43;;;8.15;;
55589;SDS011;41452;42.780;23.116;2023-05-07T07:41:07;16.02;;;8.32;;
55589;SDS011;41452;42.780;23.116;2023-05-07T07:43:33;14.68;;;8.40;;
55589;SDS011;41452;42.780;23.116;2023-05-07T07:46:00;12.35;;;7.50;;
55589;SDS011;41452;42.780;23.116;2023-05-07T07:48:26;14.40;;;7.22;;
55589;SDS011;41452;42.780;23.116;2023-05-07T07:50:51;10.20;;;7.18;;
55589;SDS011;41452;42.780;23.116;2023-05-07T07:53:17;10.90;;;6.93;;
55589;SDS011;41452;42.780;23.116;2023-05-07T07:55:43;11.75;;;6.47;;
55589;SDS011;41452;42.780;23.116;2023-05-07T07:58:08;10.13;;;6.00;;
55589;SDS011;41452;42.780;23.116;2023-05-07T08:00:34;7.78;;;5.45;;
55589;SDS011;41452;42.780;23.116;2023-05-07T08:02:59;9.32;;;5.85;;
55589;SDS011;41452;42.780;23.116;2023-05-07T08:05:25;9.60;;;6.47;;
55589;SDS011;41452;42.780;23.116;2023-05-07T08:07:50;10.27;;;6.50;;
55589;SDS011;41452;42.780;23.116;2023-05-07T08:10:17;9.75;;;5.90;;
55589;SDS011;41452;42.780;23.116;2023-05-07T08:12:46;6.63;;;5.15;;
55589;SDS011;41452;42.780;23.116;2023-05-07T08:15:15;7.90;;;5.13;;
55589;SDS011;41452;42.780;23.116;2023-05-07T08:17:41;8.15;;;5.82;;
55589;SDS011;41452;42.780;23.116;2023-05-07T08:20:07;10.82;;;4.95;;
55589;SDS011;41452;42.780;23.116;2023-05-07T08:22:33;8.30;;;5.03;;
55589;SDS011;41452;42.780;23.116;2023-05-07T08:25:02;8.10;;;4.90;;
55589;SDS011;41452;42.780;23.116;2023-05-07T08:27:27;8.65;;;5.03;;
55589;SDS011;41452;42.780;23.116;2023-05-07T08:29:53;10.15;;;5.28;;
55589;SDS011;41452;42.780;23.116;2023-05-07T08:32:18;8.00;;;4.78;;
55589;SDS011;41452;42.780;23.116;2023-05-07T08:34:44;8.20;;;3.67;;
55589;SDS011;41452;42.780;23.116;2023-05-07T08:37:09;6.78;;;4.55;;
55589;SDS011;41452;42.780;23.116;2023-05-07T08:39:35;7.28;;;4.65;;
55589;SDS011;41452;42.780;23.116;2023-05-07T08:42:00;12.05;;;4.78;;
55589;SDS011;41452;42.780;23.116;2023-05-07T08:44:28;6.57;;;4.75;;
55589;SDS011;41452;42.780;23.116;2023-05-07T08:46:58;7.82;;;5.03;;
55589;SDS011;41452;42.780;23.116;2023-05-07T08:49:26;11.25;;;4.90;;
55589;SDS011;41452;42.780;23.116;2023-05-07T08:51:52;8.15;;;4.30;;
55589;SDS011;41452;42.780;23.116;2023-05-07T08:54:18;10.48;;;4.22;;
55589;SDS011;41452;42.780;23.116;2023-05-07T08:56:45;9.43;;;4.28;;
55589;SDS011;41452;42.780;23.116;2023-05-07T08:59:10;7.80;;;4.10;;
55589;SDS011;41452;42.780;23.116;2023-05-07T09:01:36;7.03;;;3.90;;
55589;SDS011;41452;42.780;23.116;2023-05-07T09:04:02;9.25;;;3.92;;
55589;SDS011;41452;42.780;23.116;2023-05-07T09:06:27;5.28;;;3.70;;
55589;SDS011;41452;42.780;23.116;2023-05-07T09:08:53;8.45;;;4.45;;
55589;SDS011;41452;42.780;23.116;2023-05-07T09:11:23;6.97;;;4.68;;
55589;SDS011;41452;42.780;23.116;2023-05-07T09:13:56;7.13;;;3.83;;
55589;SDS011;41452;42.780;23.116;2023-05-07T09:16:24;16.67;;;4.32;;
55589;SDS011;41452;42.780;23.116;2023-05-07T09:18:51;6.88;;;3.58;;
55589;SDS011;41452;42.780;23.116;2023-05-07T09:21:18;5.47;;;2.95;;
55589;SDS011;41452;42.780;23.116;2023-05-07T09:23:44;5.68;;;3.50;;
55589;SDS011;41452;42.780;23.116;2023-05-07T09:26:10;7.35;;;3.50;;
55589;SDS011;41452;42.780;23.116;2023-05-07T09:28:44;5.53;;;4.13;;
55589;SDS011;41452;42.780;23.116;2023-05-07T09:33:37;6.30;;;3.90;;
55589;SDS011;41452;42.780;23.116;2023-05-07T09:36:04;5.03;;;3.13;;
55589;SDS011;41452;42.780;23.116;2023-05-07T09:38:30;7.68;;;3.58;;
55589;SDS011;41452;42.780;23.116;2023-05-07T09:43:31;6.68;;;3.75;;
55589;SDS011;41452;42.780;23.116;2023-05-07T09:45:58;4.95;;;3.00;;
55589;SDS011;41452;42.780;23.116;2023-05-07T09:48:27;5.45;;;2.75;;
55589;SDS011;41452;42.780;23.116;2023-05-07T09:50:55;5.63;;;3.50;;
55589;SDS011;41452;42.780;23.116;2023-05-07T09:53:23;4.72;;;3.03;;
55589;SDS011;41452;42.780;23.116;2023-05-07T09:55:50;8.90;;;3.47;;
55589;SDS011;41452;42.780;23.116;2023-05-07T09:58:16;5.25;;;3.85;;
55589;SDS011;41452;42.780;23.116;2023-05-07T10:00:43;6.43;;;3.08;;
55589;SDS011;41452;42.780;23.116;2023-05-07T10:03:10;5.90;;;3.53;;
55589;SDS011;41452;42.780;23.116;2023-05-07T10:05:37;4.72;;;3.22;;
55589;SDS011;41452;42.780;23.116;2023-05-07T10:08:04;4.63;;;2.70;;
55589;SDS011;41452;42.780;23.116;2023-05-07T10:10:33;3.80;;;2.60;;
55589;SDS011;41452;42.780;23.116;2023-05-07T10:12:59;6.05;;;2.80;;
55589;SDS011;41452;42.780;23.116;2023-05-07T10:15:27;4.63;;;2.67;;
55589;SDS011;41452;42.780;23.116;2023-05-07T10:17:54;3.92;;;2.60;;
55589;SDS011;41452;42.780;23.116;2023-05-07T10:20:20;5.13;;;3.08;;
55589;SDS011;41452;42.780;23.116;2023-05-07T10:22:47;5.18;;;2.60;;
55589;SDS011;41452;42.780;23.116;2023-05-07T10:25:14;6.47;;;3.22;;
55589;SDS011;41452;42.780;23.116;2023-05-07T10:27:43;4.53;;;2.72;;
55589;SDS011;41452;42.780;23.116;2023-05-07T10:35:16;8.75;;;2.97;;
55589;SDS011;41452;42.780;23.116;2023-05-07T10:37:45;4.72;;;2.42;;
55589;SDS011;41452;42.780;23.116;2023-05-07T10:40:11;5.63;;;2.72;;
55589;SDS011;41452;42.780;23.116;2023-05-07T10:42:37;4.75;;;2.83;;
55589;SDS011;41452;42.780;23.116;2023-05-07T10:45:15;5.03;;;2.55;;
55589;SDS011;41452;42.780;23.116;2023-05-07T10:50:28;3.60;;;2.42;;
55589;SDS011;41452;42.780;23.116;2023-05-07T10:58:22;3.50;;;2.63;;
55589;SDS011;41452;42.780;23.116;2023-05-07T11:00:55;3.08;;;2.30;;
55589;SDS011;41452;42.780;23.116;2023-05-07T11:03:22;6.10;;;2.33;;
55589;SDS011;41452;42.780;23.116;2023-05-07T11:05:47;9.05;;;2.63;;
55589;SDS011;41452;42.780;23.116;2023-05-07T11:08:52;3.97;;;2.00;;
55589;SDS011;41452;42.780;23.116;2023-05-07T11:14:09;3.38;;;2.10;;
55589;SDS011;41452;42.780;23.116;2023-05-07T11:16:35;5.60;;;2.42;;
55589;SDS011;41452;42.780;23.116;2023-05-07T11:19:03;4.22;;;2.60;;
55589;SDS011;41452;42.780;23.116;2023-05-07T11:24:01;4.55;;;2.08;;
55589;SDS011;41452;42.780;23.116;2023-05-07T11:26:29;6.15;;;2.28;;
55589;SDS011;41452;42.780;23.116;2023-05-07T11:28:56;4.50;;;2.35;;
55589;SDS011;41452;42.780;23.116;2023-05-07T11:31:26;5.15;;;2.60;;
55589;SDS011;41452;42.780;23.116;2023-05-07T11:33:53;3.83;;;2.22;;
55589;SDS011;41452;42.780;23.116;2023-05-07T11:36:20;3.33;;;2.00;;
55589;SDS011;41452;42.780;23.116;2023-05-07T11:38:47;4.40;;;2.00;;
55589;SDS011;41452;42.780;23.116;2023-05-07T11:41:12;4.22;;;2.05;;
55589;SDS011;41452;42.780;23.116;2023-05-07T11:43:37;4.20;;;2.03;;
55589;SDS011;41452;42.780;23.116;2023-05-07T11:46:05;4.47;;;2.28;;
55589;SDS011;41452;42.780;23.116;2023-05-07T11:48:32;6.13;;;2.40;;
55589;SDS011;41452;42.780;23.116;2023-05-07T11:53:27;17.93;;;3.30;;
55589;SDS011;41452;42.780;23.116;2023-05-07T11:55:56;3.67;;;2.05;;
55589;SDS011;41452;42.780;23.116;2023-05-07T11:58:22;3.10;;;2.00;;
55589;SDS011;41452;42.780;23.116;2023-05-07T12:00:49;5.57;;;2.30;;
55589;SDS011;41452;42.780;23.116;2023-05-07T12:03:18;3.83;;;2.25;;
55589;SDS011;41452;42.780;23.116;2023-05-07T12:05:45;3.50;;;2.00;;
55589;SDS011;41452;42.780;23.116;2023-05-07T12:08:14;3.78;;;2.30;;
55589;SDS011;41452;42.780;23.116;2023-05-07T12:10:43;3.47;;;2.20;;
55589;SDS011;41452;42.780;23.116;2023-05-07T12:13:18;3.47;;;2.22;;
55589;SDS011;41452;42.780;23.116;2023-05-07T12:15:50;2.85;;;2.08;;
55589;SDS011;41452;42.780;23.116;2023-05-07T12:18:18;3.72;;;2.20;;
55589;SDS011;41452;42.780;23.116;2023-05-07T12:20:45;3.28;;;2.10;;
55589;SDS011;41452;42.780;23.116;2023-05-07T12:23:12;3.20;;;2.15;;
55589;SDS011;41452;42.780;23.116;2023-05-07T12:25:38;10.07;;;2.35;;
55589;SDS011;41452;42.780;23.116;2023-05-07T12:28:05;3.72;;;2.28;;
55589;SDS011;41452;42.780;23.116;2023-05-07T12:30:31;5.88;;;2.00;;
55589;SDS011;41452;42.780;23.116;2023-05-07T12:33:01;3.80;;;2.35;;
55589;SDS011;41452;42.780;23.116;2023-05-07T12:35:27;3.67;;;2.70;;
55589;SDS011;41452;42.780;23.116;2023-05-07T12:37:59;3.88;;;2.20;;
55589;SDS011;41452;42.780;23.116;2023-05-07T12:40:39;3.63;;;2.20;;
55589;SDS011;41452;42.780;23.116;2023-05-07T12:43:05;4.93;;;2.40;;
55589;SDS011;41452;42.780;23.116;2023-05-07T12:45:31;2.75;;;1.98;;
55589;SDS011;41452;42.780;23.116;2023-05-07T12:48:01;4.05;;;2.08;;
55589;SDS011;41452;42.780;23.116;2023-05-07T12:50:30;7.28;;;2.38;;
55589;SDS011;41452;42.780;23.116;2023-05-07T12:52:58;5.50;;;2.10;;
55589;SDS011;41452;42.780;23.116;2023-05-07T12:55:23;3.78;;;2.20;;
55589;SDS011;41452;42.780;23.116;2023-05-07T12:57:49;3.80;;;1.92;;
55589;SDS011;41452;42.780;23.116;2023-05-07T13:00:18;6.03;;;1.88;;
55589;SDS011;41452;42.780;23.116;2023-05-07T13:02:58;5.05;;;2.50;;
55589;SDS011;41452;42.780;23.116;2023-05-07T13:05:23;5.20;;;2.33;;
55589;SDS011;41452;42.780;23.116;2023-05-07T13:07:52;5.22;;;2.17;;
55589;SDS011;41452;42.780;23.116;2023-05-07T13:10:18;4.32;;;2.25;;
55589;SDS011;41452;42.780;23.116;2023-05-07T13:12:44;4.07;;;2.33;;
55589;SDS011;41452;42.780;23.116;2023-05-07T13:15:09;4.93;;;2.10;;
55589;SDS011;41452;42.780;23.116;2023-05-07T13:17:35;4.22;;;2.28;;
55589;SDS011;41452;42.780;23.116;2023-05-07T13:20:00;4.70;;;2.20;;
55589;SDS011;41452;42.780;23.116;2023-05-07T13:22:26;5.63;;;2.33;;
55589;SDS011;41452;42.780;23.116;2023-05-07T13:24:51;3.75;;;1.98;;
55589;SDS011;41452;42.780;23.116;2023-05-07T13:27:17;3.67;;;2.65;;
55589;SDS011;41452;42.780;23.116;2023-05-07T13:29:44;8.30;;;2.60;;
55589;SDS011;41452;42.780;23.116;2023-05-07T13:32:09;3.78;;;2.20;;
55589;SDS011;41452;42.780;23.116;2023-05-07T13:34:34;2.90;;;1.83;;
55589;SDS011;41452;42.780;23.116;2023-05-07T13:37:00;3.92;;;1.98;;
55589;SDS011;41452;42.780;23.116;2023-05-07T13:39:25;4.30;;;2.17;;
55589;SDS011;41452;42.780;23.116;2023-05-07T13:41:51;3.78;;;2.35;;
55589;SDS011;41452;42.780;23.116;2023-05-07T13:44:16;4.53;;;2.20;;
55589;SDS011;41452;42.780;23.116;2023-05-07T13:46:42;6.45;;;2.00;;
55589;SDS011;41452;42.780;23.116;2023-05-07T13:49:07;3.03;;;2.20;;
55589;SDS011;41452;42.780;23.116;2023-05-07T13:51:32;5.15;;;2.80;;
55589;SDS011;41452;42.780;23.116;2023-05-07T13:53:58;3.67;;;2.33;;
55589;SDS011;41452;42.780;23.116;2023-05-07T13:56:23;3.28;;;2.05;;
55589;SDS011;41452;42.780;23.116;2023-05-07T13:58:49;4.53;;;2.35;;
55589;SDS011;41452;42.780;23.116;2023-05-07T14:01:14;8.70;;;2.63;;
55589;SDS011;41452;42.780;23.116;2023-05-07T14:03:39;3.30;;;2.13;;
55589;SDS011;41452;42.780;23.116;2023-05-07T14:06:05;4.75;;;2.28;;
55589;SDS011;41452;42.780;23.116;2023-05-07T14:08:31;7.72;;;2.40;;
55589;SDS011;41452;42.780;23.116;2023-05-07T14:10:56;4.80;;;2.33;;
55589;SDS011;41452;42.780;23.116;2023-05-07T14:13:21;4.30;;;2.30;;
55589;SDS011;41452;42.780;23.116;2023-05-07T14:15:47;5.72;;;2.38;;
55589;SDS011;41452;42.780;23.116;2023-05-07T14:18:14;4.10;;;2.55;;
55589;SDS011;41452;42.780;23.116;2023-05-07T14:20:40;4.28;;;2.45;;
55589;SDS011;41452;42.780;23.116;2023-05-07T14:23:05;3.72;;;2.40;;
55589;SDS011;41452;42.780;23.116;2023-05-07T14:25:31;4.00;;;2.03;;
55589;SDS011;41452;42.780;23.116;2023-05-07T14:27:57;3.35;;;2.20;;
55589;SDS011;41452;42.780;23.116;2023-05-07T14:30:22;3.53;;;2.00;;
55589;SDS011;41452;42.780;23.116;2023-05-07T14:32:49;5.05;;;2.17;;
55589;SDS011;41452;42.780;23.116;2023-05-07T14:35:15;10.60;;;2.55;;
55589;SDS011;41452;42.780;23.116;2023-05-07T14:37:40;4.85;;;2.15;;
55589;SDS011;41452;42.780;23.116;2023-05-07T14:40:06;9.35;;;2.80;;
55589;SDS011;41452;42.780;23.116;2023-05-07T14:42:32;4.22;;;2.63;;
55589;SDS011;41452;42.780;23.116;2023-05-07T14:44:57;3.28;;;1.90;;
55589;SDS011;41452;42.780;23.116;2023-05-07T14:47:22;5.45;;;2.58;;
55589;SDS011;41452;42.780;23.116;2023-05-07T14:49:48;5.65;;;2.28;;